sensor_id;sensor_type;location;lat;lon;timestamp;P1;durP1;ratioP1;P2;durP2;ratioP2
76059;SDS011;64759;52.220;5.170;2023-03-14T00:01:46;26.73;;;5.20;;
76059;SDS011;64759;52.220;5.170;2023-03-14T00:04:13;25.15;;;4.85;;
76059;SDS011;64759;52.220;5.170;2023-03-14T00:06:39;23.02;;;4.53;;
76059;SDS011;64759;52.220;5.170;2023-03-14T00:09:04;21.73;;;4.40;;
76059;SDS011;64759;52.220;5.170;2023-03-14T00:11:29;22.40;;;4.22;;
76059;SDS011;64759;52.220;5.170;2023-03-14T00:13:56;23.65;;;4.30;;
76059;SDS011;64759;52.220;5.170;2023-03-14T00:16:21;18.88;;;3.53;;
76059;SDS011;64759;52.220;5.170;2023-03-14T00:21:29;24.50;;;4.18;;
76059;SDS011;64759;52.220;5.170;2023-03-14T00:23:54;21.23;;;3.90;;
76059;SDS011;64759;52.220;5.170;2023-03-14T00:26:20;19.63;;;4.07;;
76059;SDS011;64759;52.220;5.170;2023-03-14T00:28:50;24.67;;;4.57;;
76059;SDS011;64759;52.220;5.170;2023-03-14T00:31:18;16.65;;;3.20;;
76059;SDS011;64759;52.220;5.170;2023-03-14T00:33:44;19.00;;;3.22;;
76059;SDS011;64759;52.220;5.170;2023-03-14T00:36:14;18.33;;;3.42;;
76059;SDS011;64759;52.220;5.170;2023-03-14T00:38:41;20.48;;;3.70;;
76059;SDS011;64759;52.220;5.170;2023-03-14T00:41:12;19.90;;;4.53;;
76059;SDS011;64759;52.220;5.170;2023-03-14T00:43:40;19.73;;;3.40;;
76059;SDS011;64759;52.220;5.170;2023-03-14T00:46:07;24.73;;;4.78;;
76059;SDS011;64759;52.220;5.170;2023-03-14T00:48:33;18.58;;;4.40;;
76059;SDS011;64759;52.220;5.170;2023-03-14T00:51:00;20.70;;;4.75;;
76059;SDS011;64759;52.220;5.170;2023-03-14T00:53:27;20.52;;;4.15;;
76059;SDS011;64759;52.220;5.170;2023-03-14T00:55:55;15.55;;;4.47;;
76059;SDS011;64759;52.220;5.170;2023-03-14T00:58:21;16.15;;;3.95;;
76059;SDS011;64759;52.220;5.170;2023-03-14T01:00:47;20.33;;;4.25;;
76059;SDS011;64759;52.220;5.170;2023-03-14T01:03:13;17.92;;;3.53;;
76059;SDS011;64759;52.220;5.170;2023-03-14T01:05:39;15.48;;;3.50;;
76059;SDS011;64759;52.220;5.170;2023-03-14T01:08:05;19.85;;;2.88;;
76059;SDS011;64759;52.220;5.170;2023-03-14T01:10:33;13.18;;;2.60;;
76059;SDS011;64759;52.220;5.170;2023-03-14T01:12:59;14.30;;;3.28;;
76059;SDS011;64759;52.220;5.170;2023-03-14T01:15:25;19.38;;;3.13;;
76059;SDS011;64759;52.220;5.170;2023-03-14T01:17:51;16.67;;;3.03;;
76059;SDS011;64759;52.220;5.170;2023-03-14T01:20:16;11.63;;;2.63;;
76059;SDS011;64759;52.220;5.170;2023-03-14T01:22:43;11.95;;;2.55;;
76059;SDS011;64759;52.220;5.170;2023-03-14T01:25:15;16.23;;;3.25;;
76059;SDS011;64759;52.220;5.170;2023-03-14T01:27:42;19.60;;;4.15;;
76059;SDS011;64759;52.220;5.170;2023-03-14T01:30:08;18.20;;;3.88;;
76059;SDS011;64759;52.220;5.170;2023-03-14T01:32:35;17.50;;;4.05;;
76059;SDS011;64759;52.220;5.170;2023-03-14T01:35:00;13.95;;;2.55;;
76059;SDS011;64759;52.220;5.170;2023-03-14T01:37:26;20.77;;;4.00;;
76059;SDS011;64759;52.220;5.170;2023-03-14T01:39:51;21.52;;;5.25;;
76059;SDS011;64759;52.220;5.170;2023-03-14T01:42:21;29.23;;;5.13;;
76059;SDS011;64759;52.220;5.170;2023-03-14T01:47:20;19.52;;;4.45;;
76059;SDS011;64759;52.220;5.170;2023-03-14T01:49:59;15.95;;;2.80;;
76059;SDS011;64759;52.220;5.170;2023-03-14T01:52:35;15.27;;;3.42;;
76059;SDS011;64759;52.220;5.170;2023-03-14T01:55:09;15.32;;;3.72;;
76059;SDS011;64759;52.220;5.170;2023-03-14T01:57:49;16.33;;;3.63;;
76059;SDS011;64759;52.220;5.170;2023-03-14T02:00:22;22.10;;;4.18;;
76059;SDS011;64759;52.220;5.170;2023-03-14T02:02:58;24.60;;;4.00;;
76059;SDS011;64759;52.220;5.170;2023-03-14T02:05:32;25.85;;;4.45;;
76059;SDS011;64759;52.220;5.170;2023-03-14T02:08:10;19.38;;;3.30;;
76059;SDS011;64759;52.220;5.170;2023-03-14T02:11:04;19.70;;;4.43;;
76059;SDS011;64759;52.220;5.170;2023-03-14T02:13:45;17.23;;;4.00;;
76059;SDS011;64759;52.220;5.170;2023-03-14T02:16:29;20.75;;;3.88;;
76059;SDS011;64759;52.220;5.170;2023-03-14T02:19:12;16.90;;;4.10;;
76059;SDS011;64759;52.220;5.170;2023-03-14T02:22:09;17.52;;;3.33;;
76059;SDS011;64759;52.220;5.170;2023-03-14T02:27:23;17.05;;;3.47;;
76059;SDS011;64759;52.220;5.170;2023-03-14T02:29:52;9.35;;;2.42;;
76059;SDS011;64759;52.220;5.170;2023-03-14T02:32:26;19.67;;;2.97;;
76059;SDS011;64759;52.220;5.170;2023-03-14T02:34:55;15.80;;;2.78;;
76059;SDS011;64759;52.220;5.170;2023-03-14T02:37:25;15.23;;;3.30;;
76059;SDS011;64759;52.220;5.170;2023-03-14T02:39:57;16.27;;;2.70;;
76059;SDS011;64759;52.220;5.170;2023-03-14T02:42:24;11.13;;;2.65;;
76059;SDS011;64759;52.220;5.170;2023-03-14T02:44:55;18.67;;;2.50;;
76059;SDS011;64759;52.220;5.170;2023-03-14T02:47:34;17.40;;;3.75;;
76059;SDS011;64759;52.220;5.170;2023-03-14T02:50:09;15.07;;;2.50;;
76059;SDS011;64759;52.220;5.170;2023-03-14T02:52:39;8.60;;;2.55;;
76059;SDS011;64759;52.220;5.170;2023-03-14T02:55:06;12.75;;;1.75;;
76059;SDS011;64759;52.220;5.170;2023-03-14T02:57:33;15.98;;;2.38;;
76059;SDS011;64759;52.220;5.170;2023-03-14T03:00:00;16.92;;;2.70;;
76059;SDS011;64759;52.220;5.170;2023-03-14T03:02:32;16.75;;;2.78;;
76059;SDS011;64759;52.220;5.170;2023-03-14T03:04:57;15.98;;;3.65;;
76059;SDS011;64759;52.220;5.170;2023-03-14T03:07:23;21.10;;;3.25;;
76059;SDS011;64759;52.220;5.170;2023-03-14T03:09:49;14.02;;;4.13;;
76059;SDS011;64759;52.220;5.170;2023-03-14T03:12:17;14.25;;;3.63;;
76059;SDS011;64759;52.220;5.170;2023-03-14T03:14:43;11.38;;;2.08;;
76059;SDS011;64759;52.220;5.170;2023-03-14T03:17:10;12.38;;;2.55;;
76059;SDS011;64759;52.220;5.170;2023-03-14T03:19:37;14.43;;;2.80;;
76059;SDS011;64759;52.220;5.170;2023-03-14T03:22:03;16.05;;;3.00;;
76059;SDS011;64759;52.220;5.170;2023-03-14T03:24:29;15.27;;;2.78;;
76059;SDS011;64759;52.220;5.170;2023-03-14T03:26:54;15.45;;;2.60;;
76059;SDS011;64759;52.220;5.170;2023-03-14T03:29:20;22.15;;;2.85;;
76059;SDS011;64759;52.220;5.170;2023-03-14T03:31:45;14.65;;;2.65;;
76059;SDS011;64759;52.220;5.170;2023-03-14T03:34:14;12.02;;;2.70;;
76059;SDS011;64759;52.220;5.170;2023-03-14T03:36:40;16.05;;;3.20;;
76059;SDS011;64759;52.220;5.170;2023-03-14T03:39:06;18.80;;;3.03;;
76059;SDS011;64759;52.220;5.170;2023-03-14T03:41:32;11.88;;;3.13;;
76059;SDS011;64759;52.220;5.170;2023-03-14T03:44:01;20.80;;;4.13;;
76059;SDS011;64759;52.220;5.170;2023-03-14T03:46:26;15.43;;;2.38;;
76059;SDS011;64759;52.220;5.170;2023-03-14T03:48:56;16.00;;;3.38;;
76059;SDS011;64759;52.220;5.170;2023-03-14T03:51:23;15.73;;;3.10;;
76059;SDS011;64759;52.220;5.170;2023-03-14T03:53:48;18.05;;;3.30;;
76059;SDS011;64759;52.220;5.170;2023-03-14T03:56:18;17.65;;;3.75;;
76059;SDS011;64759;52.220;5.170;2023-03-14T03:58:44;16.20;;;3.15;;
76059;SDS011;64759;52.220;5.170;2023-03-14T04:01:10;16.50;;;3.17;;
76059;SDS011;64759;52.220;5.170;2023-03-14T04:03:36;15.90;;;3.30;;
76059;SDS011;64759;52.220;5.170;2023-03-14T04:06:10;16.27;;;3.00;;
76059;SDS011;64759;52.220;5.170;2023-03-14T04:08:41;18.60;;;3.58;;
76059;SDS011;64759;52.220;5.170;2023-03-14T04:11:08;21.33;;;3.45;;
76059;SDS011;64759;52.220;5.170;2023-03-14T04:14:05;16.02;;;2.70;;
76059;SDS011;64759;52.220;5.170;2023-03-14T04:16:32;13.65;;;2.17;;
76059;SDS011;64759;52.220;5.170;2023-03-14T04:19:07;15.07;;;2.80;;
76059;SDS011;64759;52.220;5.170;2023-03-14T04:21:33;14.35;;;2.72;;
76059;SDS011;64759;52.220;5.170;2023-03-14T04:23:58;14.20;;;3.83;;
76059;SDS011;64759;52.220;5.170;2023-03-14T04:26:28;13.43;;;2.40;;
76059;SDS011;64759;52.220;5.170;2023-03-14T04:28:54;19.38;;;3.42;;
76059;SDS011;64759;52.220;5.170;2023-03-14T04:31:21;18.08;;;2.78;;
76059;SDS011;64759;52.220;5.170;2023-03-14T04:33:48;18.15;;;2.85;;
76059;SDS011;64759;52.220;5.170;2023-03-14T04:36:17;13.85;;;3.15;;
76059;SDS011;64759;52.220;5.170;2023-03-14T04:38:44;19.35;;;3.17;;
76059;SDS011;64759;52.220;5.170;2023-03-14T04:41:11;16.42;;;3.03;;
76059;SDS011;64759;52.220;5.170;2023-03-14T04:43:38;16.27;;;2.88;;
76059;SDS011;64759;52.220;5.170;2023-03-14T04:46:06;14.90;;;3.00;;
76059;SDS011;64759;52.220;5.170;2023-03-14T04:48:32;14.20;;;3.85;;
76059;SDS011;64759;52.220;5.170;2023-03-14T04:51:03;17.67;;;2.72;;
76059;SDS011;64759;52.220;5.170;2023-03-14T04:53:31;11.05;;;2.75;;
76059;SDS011;64759;52.220;5.170;2023-03-14T04:55:57;16.27;;;3.03;;
76059;SDS011;64759;52.220;5.170;2023-03-14T04:58:28;13.98;;;2.88;;
76059;SDS011;64759;52.220;5.170;2023-03-14T05:00:56;15.88;;;3.50;;
76059;SDS011;64759;52.220;5.170;2023-03-14T05:03:38;10.32;;;2.53;;
76059;SDS011;64759;52.220;5.170;2023-03-14T05:06:35;16.48;;;2.85;;
76059;SDS011;64759;52.220;5.170;2023-03-14T05:09:19;12.77;;;2.45;;
76059;SDS011;64759;52.220;5.170;2023-03-14T05:12:20;14.95;;;2.78;;
76059;SDS011;64759;52.220;5.170;2023-03-14T05:15:02;18.40;;;4.70;;
76059;SDS011;64759;52.220;5.170;2023-03-14T05:17:56;18.83;;;3.38;;
76059;SDS011;64759;52.220;5.170;2023-03-14T05:20:50;20.15;;;3.58;;
76059;SDS011;64759;52.220;5.170;2023-03-14T05:23:40;19.70;;;2.70;;
76059;SDS011;64759;52.220;5.170;2023-03-14T05:26:15;14.65;;;2.63;;
76059;SDS011;64759;52.220;5.170;2023-03-14T05:28:51;16.55;;;3.88;;
76059;SDS011;64759;52.220;5.170;2023-03-14T05:31:28;15.50;;;3.00;;
76059;SDS011;64759;52.220;5.170;2023-03-14T05:34:06;16.33;;;3.67;;
76059;SDS011;64759;52.220;5.170;2023-03-14T05:36:47;11.38;;;3.25;;
76059;SDS011;64759;52.220;5.170;2023-03-14T05:39:21;13.00;;;3.10;;
76059;SDS011;64759;52.220;5.170;2023-03-14T05:42:07;12.50;;;2.88;;
76059;SDS011;64759;52.220;5.170;2023-03-14T05:44:51;19.65;;;4.63;;
76059;SDS011;64759;52.220;5.170;2023-03-14T05:47:35;10.23;;;2.95;;
76059;SDS011;64759;52.220;5.170;2023-03-14T05:50:23;13.98;;;3.30;;
76059;SDS011;64759;52.220;5.170;2023-03-14T05:53:07;17.10;;;3.25;;
76059;SDS011;64759;52.220;5.170;2023-03-14T05:55:36;11.23;;;3.63;;
76059;SDS011;64759;52.220;5.170;2023-03-14T05:58:15;18.92;;;4.07;;
76059;SDS011;64759;52.220;5.170;2023-03-14T06:01:13;12.48;;;4.13;;
76059;SDS011;64759;52.220;5.170;2023-03-14T06:03:58;7.45;;;3.20;;
76059;SDS011;64759;52.220;5.170;2023-03-14T06:06:24;15.30;;;4.82;;
76059;SDS011;64759;52.220;5.170;2023-03-14T06:08:50;12.43;;;3.65;;
76059;SDS011;64759;52.220;5.170;2023-03-14T06:11:15;12.55;;;4.85;;
76059;SDS011;64759;52.220;5.170;2023-03-14T06:13:41;8.13;;;3.55;;
76059;SDS011;64759;52.220;5.170;2023-03-14T06:16:07;14.20;;;4.78;;
76059;SDS011;64759;52.220;5.170;2023-03-14T06:18:33;11.60;;;4.18;;
76059;SDS011;64759;52.220;5.170;2023-03-14T06:20:59;11.27;;;4.25;;
76059;SDS011;64759;52.220;5.170;2023-03-14T06:23:25;7.50;;;2.22;;
76059;SDS011;64759;52.220;5.170;2023-03-14T06:25:52;8.40;;;1.80;;
76059;SDS011;64759;52.220;5.170;2023-03-14T06:28:19;6.75;;;2.00;;
76059;SDS011;64759;52.220;5.170;2023-03-14T06:30:45;3.92;;;1.08;;
76059;SDS011;64759;52.220;5.170;2023-03-14T06:33:13;3.35;;;1.38;;
76059;SDS011;64759;52.220;5.170;2023-03-14T06:35:40;4.30;;;1.30;;
76059;SDS011;64759;52.220;5.170;2023-03-14T06:38:06;4.60;;;1.40;;
76059;SDS011;64759;52.220;5.170;2023-03-14T06:40:32;5.82;;;1.77;;
76059;SDS011;64759;52.220;5.170;2023-03-14T06:43:04;9.48;;;2.08;;
76059;SDS011;64759;52.220;5.170;2023-03-14T06:45:31;7.90;;;2.22;;
76059;SDS011;64759;52.220;5.170;2023-03-14T06:47:58;11.98;;;2.70;;
76059;SDS011;64759;52.220;5.170;2023-03-14T06:50:33;7.85;;;2.30;;
76059;SDS011;64759;52.220;5.170;2023-03-14T06:52:59;3.10;;;1.98;;
76059;SDS011;64759;52.220;5.170;2023-03-14T06:55:25;7.45;;;1.73;;
76059;SDS011;64759;52.220;5.170;2023-03-14T06:57:52;6.82;;;1.85;;
76059;SDS011;64759;52.220;5.170;2023-03-14T07:00:19;3.88;;;1.35;;
76059;SDS011;64759;52.220;5.170;2023-03-14T07:02:45;4.47;;;1.15;;
76059;SDS011;64759;52.220;5.170;2023-03-14T07:05:22;6.45;;;1.45;;
76059;SDS011;64759;52.220;5.170;2023-03-14T07:07:47;3.00;;;1.25;;
76059;SDS011;64759;52.220;5.170;2023-03-14T07:10:13;4.25;;;1.50;;
76059;SDS011;64759;52.220;5.170;2023-03-14T07:12:39;7.18;;;1.60;;
76059;SDS011;64759;52.220;5.170;2023-03-14T07:15:04;6.15;;;1.30;;
76059;SDS011;64759;52.220;5.170;2023-03-14T07:17:30;10.38;;;1.55;;
76059;SDS011;64759;52.220;5.170;2023-03-14T07:19:57;7.93;;;1.83;;
76059;SDS011;64759;52.220;5.170;2023-03-14T07:22:23;4.43;;;0.90;;
76059;SDS011;64759;52.220;5.170;2023-03-14T07:24:48;6.82;;;1.20;;
76059;SDS011;64759;52.220;5.170;2023-03-14T07:27:13;9.00;;;1.42;;
76059;SDS011;64759;52.220;5.170;2023-03-14T07:29:39;5.38;;;0.80;;
76059;SDS011;64759;52.220;5.170;2023-03-14T07:32:04;5.35;;;1.30;;
76059;SDS011;64759;52.220;5.170;2023-03-14T07:34:30;4.07;;;1.00;;
76059;SDS011;64759;52.220;5.170;2023-03-14T07:36:55;3.72;;;0.98;;
76059;SDS011;64759;52.220;5.170;2023-03-14T07:39:21;4.50;;;1.20;;
76059;SDS011;64759;52.220;5.170;2023-03-14T07:41:47;6.95;;;1.10;;
76059;SDS011;64759;52.220;5.170;2023-03-14T07:44:24;10.20;;;1.20;;
76059;SDS011;64759;52.220;5.170;2023-03-14T07:46:50;7.53;;;1.42;;
76059;SDS011;64759;52.220;5.170;2023-03-14T07:49:15;12.15;;;1.45;;
76059;SDS011;64759;52.220;5.170;2023-03-14T07:51:40;12.43;;;1.27;;
76059;SDS011;64759;52.220;5.170;2023-03-14T07:54:10;14.80;;;2.25;;
76059;SDS011;64759;52.220;5.170;2023-03-14T07:56:36;13.57;;;1.80;;
76059;SDS011;64759;52.220;5.170;2023-03-14T07:59:04;15.75;;;2.95;;
76059;SDS011;64759;52.220;5.170;2023-03-14T08:01:29;12.00;;;1.55;;
76059;SDS011;64759;52.220;5.170;2023-03-14T08:03:56;11.35;;;1.73;;
76059;SDS011;64759;52.220;5.170;2023-03-14T08:06:22;9.65;;;1.52;;
76059;SDS011;64759;52.220;5.170;2023-03-14T08:08:47;7.47;;;0.88;;
76059;SDS011;64759;52.220;5.170;2023-03-14T08:11:13;11.48;;;1.58;;
76059;SDS011;64759;52.220;5.170;2023-03-14T08:13:38;6.13;;;1.00;;
76059;SDS011;64759;52.220;5.170;2023-03-14T08:16:05;9.73;;;1.30;;
76059;SDS011;64759;52.220;5.170;2023-03-14T08:18:30;15.63;;;1.30;;
76059;SDS011;64759;52.220;5.170;2023-03-14T08:20:57;4.40;;;1.00;;
76059;SDS011;64759;52.220;5.170;2023-03-14T08:23:25;6.30;;;1.60;;
76059;SDS011;64759;52.220;5.170;2023-03-14T08:25:51;7.57;;;1.00;;
76059;SDS011;64759;52.220;5.170;2023-03-14T08:28:17;7.68;;;1.70;;
76059;SDS011;64759;52.220;5.170;2023-03-14T08:30:44;4.75;;;0.95;;
76059;SDS011;64759;52.220;5.170;2023-03-14T08:33:10;5.80;;;1.33;;
76059;SDS011;64759;52.220;5.170;2023-03-14T08:35:38;11.80;;;1.30;;
76059;SDS011;64759;52.220;5.170;2023-03-14T08:38:04;7.65;;;1.08;;
76059;SDS011;64759;52.220;5.170;2023-03-14T08:40:29;5.47;;;1.05;;
76059;SDS011;64759;52.220;5.170;2023-03-14T08:42:55;5.90;;;1.17;;
76059;SDS011;64759;52.220;5.170;2023-03-14T08:45:20;7.70;;;1.63;;
76059;SDS011;64759;52.220;5.170;2023-03-14T08:47:49;17.10;;;2.00;;
76059;SDS011;64759;52.220;5.170;2023-03-14T08:50:14;13.68;;;2.03;;
76059;SDS011;64759;52.220;5.170;2023-03-14T08:52:40;17.88;;;2.60;;
76059;SDS011;64759;52.220;5.170;2023-03-14T08:55:06;13.95;;;3.13;;
76059;SDS011;64759;52.220;5.170;2023-03-14T08:57:33;17.35;;;2.95;;
76059;SDS011;64759;52.220;5.170;2023-03-14T09:00:02;20.50;;;2.72;;
76059;SDS011;64759;52.220;5.170;2023-03-14T09:02:30;18.80;;;3.13;;
76059;SDS011;64759;52.220;5.170;2023-03-14T09:04:56;17.55;;;3.25;;
76059;SDS011;64759;52.220;5.170;2023-03-14T09:07:21;19.70;;;3.15;;
76059;SDS011;64759;52.220;5.170;2023-03-14T09:09:47;19.75;;;2.58;;
76059;SDS011;64759;52.220;5.170;2023-03-14T09:12:12;20.38;;;3.75;;
76059;SDS011;64759;52.220;5.170;2023-03-14T09:14:39;23.65;;;3.30;;
76059;SDS011;64759;52.220;5.170;2023-03-14T09:17:05;22.45;;;4.10;;
76059;SDS011;64759;52.220;5.170;2023-03-14T09:19:30;26.25;;;3.38;;
76059;SDS011;64759;52.220;5.170;2023-03-14T09:21:56;26.30;;;3.83;;
76059;SDS011;64759;52.220;5.170;2023-03-14T09:24:22;22.85;;;3.63;;
76059;SDS011;64759;52.220;5.170;2023-03-14T09:26:47;28.23;;;5.75;;
76059;SDS011;64759;52.220;5.170;2023-03-14T09:29:13;21.52;;;3.30;;
76059;SDS011;64759;52.220;5.170;2023-03-14T09:31:39;26.63;;;3.95;;
76059;SDS011;64759;52.220;5.170;2023-03-14T09:34:05;24.92;;;3.55;;
76059;SDS011;64759;52.220;5.170;2023-03-14T09:36:31;25.15;;;3.28;;
76059;SDS011;64759;52.220;5.170;2023-03-14T09:38:56;22.73;;;3.97;;
76059;SDS011;64759;52.220;5.170;2023-03-14T09:43:54;26.05;;;4.07;;
76059;SDS011;64759;52.220;5.170;2023-03-14T09:46:25;26.17;;;2.80;;
76059;SDS011;64759;52.220;5.170;2023-03-14T09:48:51;24.88;;;3.60;;
76059;SDS011;64759;52.220;5.170;2023-03-14T09:51:17;21.40;;;3.78;;
76059;SDS011;64759;52.220;5.170;2023-03-14T09:53:47;22.30;;;3.22;;
76059;SDS011;64759;52.220;5.170;2023-03-14T09:56:20;24.88;;;3.35;;
76059;SDS011;64759;52.220;5.170;2023-03-14T09:58:57;25.48;;;3.65;;
76059;SDS011;64759;52.220;5.170;2023-03-14T10:01:29;21.15;;;3.20;;
76059;SDS011;64759;52.220;5.170;2023-03-14T10:03:58;21.17;;;3.42;;
76059;SDS011;64759;52.220;5.170;2023-03-14T10:06:29;27.92;;;2.80;;
76059;SDS011;64759;52.220;5.170;2023-03-14T10:08:56;23.55;;;3.67;;
76059;SDS011;64759;52.220;5.170;2023-03-14T10:11:22;24.42;;;3.67;;
76059;SDS011;64759;52.220;5.170;2023-03-14T10:14:07;20.75;;;3.28;;
76059;SDS011;64759;52.220;5.170;2023-03-14T10:16:36;19.85;;;4.15;;
76059;SDS011;64759;52.220;5.170;2023-03-14T10:19:10;25.50;;;5.18;;
76059;SDS011;64759;52.220;5.170;2023-03-14T10:21:38;21.13;;;3.25;;
76059;SDS011;64759;52.220;5.170;2023-03-14T10:26:34;24.08;;;4.72;;
76059;SDS011;64759;52.220;5.170;2023-03-14T10:29:18;21.90;;;3.72;;
76059;SDS011;64759;52.220;5.170;2023-03-14T10:31:51;38.97;;;4.35;;
76059;SDS011;64759;52.220;5.170;2023-03-14T10:34:25;35.13;;;4.90;;
76059;SDS011;64759;52.220;5.170;2023-03-14T10:36:53;29.63;;;4.13;;
76059;SDS011;64759;52.220;5.170;2023-03-14T10:39:28;37.47;;;6.20;;
76059;SDS011;64759;52.220;5.170;2023-03-14T10:44:58;27.67;;;4.40;;
76059;SDS011;64759;52.220;5.170;2023-03-14T10:47:29;34.85;;;5.25;;
76059;SDS011;64759;52.220;5.170;2023-03-14T10:49:55;21.02;;;4.05;;
76059;SDS011;64759;52.220;5.170;2023-03-14T10:55:00;31.25;;;5.13;;
76059;SDS011;64759;52.220;5.170;2023-03-14T10:57:31;34.53;;;5.60;;
76059;SDS011;64759;52.220;5.170;2023-03-14T11:00:18;38.22;;;4.65;;
76059;SDS011;64759;52.220;5.170;2023-03-14T11:03:01;24.13;;;5.85;;
76059;SDS011;64759;52.220;5.170;2023-03-14T11:05:40;31.33;;;5.25;;
76059;SDS011;64759;52.220;5.170;2023-03-14T11:10:51;22.35;;;3.20;;
76059;SDS011;64759;52.220;5.170;2023-03-14T11:16:53;23.70;;;4.20;;
76059;SDS011;64759;52.220;5.170;2023-03-14T11:22:05;17.05;;;3.55;;
76059;SDS011;64759;52.220;5.170;2023-03-14T11:32:45;13.57;;;2.78;;
76059;SDS011;64759;52.220;5.170;2023-03-14T11:37:54;20.83;;;2.92;;
76059;SDS011;64759;52.220;5.170;2023-03-14T11:40:28;11.52;;;2.15;;
76059;SDS011;64759;52.220;5.170;2023-03-14T11:42:59;22.95;;;3.47;;
76059;SDS011;64759;52.220;5.170;2023-03-14T11:48:20;19.58;;;2.75;;
76059;SDS011;64759;52.220;5.170;2023-03-14T11:50:47;14.75;;;3.95;;
76059;SDS011;64759;52.220;5.170;2023-03-14T11:53:22;16.02;;;2.88;;
76059;SDS011;64759;52.220;5.170;2023-03-14T11:56:18;14.30;;;2.63;;
76059;SDS011;64759;52.220;5.170;2023-03-14T11:59:05;12.73;;;2.58;;
76059;SDS011;64759;52.220;5.170;2023-03-14T12:01:44;21.77;;;3.58;;
76059;SDS011;64759;52.220;5.170;2023-03-14T12:04:32;13.02;;;2.55;;
76059;SDS011;64759;52.220;5.170;2023-03-14T12:07:09;13.57;;;2.35;;
76059;SDS011;64759;52.220;5.170;2023-03-14T12:09:43;17.20;;;3.00;;
76059;SDS011;64759;52.220;5.170;2023-03-14T12:12:11;12.15;;;2.40;;
76059;SDS011;64759;52.220;5.170;2023-03-14T12:14:59;17.33;;;3.03;;
76059;SDS011;64759;52.220;5.170;2023-03-14T12:17:37;18.52;;;2.47;;
76059;SDS011;64759;52.220;5.170;2023-03-14T12:20:05;15.18;;;2.25;;
76059;SDS011;64759;52.220;5.170;2023-03-14T12:22:52;15.93;;;1.88;;
76059;SDS011;64759;52.220;5.170;2023-03-14T12:25:21;11.88;;;2.63;;
76059;SDS011;64759;52.220;5.170;2023-03-14T12:30:34;12.02;;;2.53;;
76059;SDS011;64759;52.220;5.170;2023-03-14T12:35:46;9.65;;;1.90;;
76059;SDS011;64759;52.220;5.170;2023-03-14T12:38:41;11.68;;;2.03;;
76059;SDS011;64759;52.220;5.170;2023-03-14T12:41:14;9.20;;;2.10;;
76059;SDS011;64759;52.220;5.170;2023-03-14T12:43:46;8.20;;;1.67;;
76059;SDS011;64759;52.220;5.170;2023-03-14T12:48:41;10.13;;;1.98;;
76059;SDS011;64759;52.220;5.170;2023-03-14T12:51:40;12.32;;;2.20;;
76059;SDS011;64759;52.220;5.170;2023-03-14T12:54:07;8.55;;;2.17;;
76059;SDS011;64759;52.220;5.170;2023-03-14T12:56:45;12.10;;;2.37;;
76059;SDS011;64759;52.220;5.170;2023-03-14T12:59:33;11.93;;;2.40;;
76059;SDS011;64759;52.220;5.170;2023-03-14T13:07:12;9.27;;;2.22;;
76059;SDS011;64759;52.220;5.170;2023-03-14T13:10:03;5.72;;;2.00;;
76059;SDS011;64759;52.220;5.170;2023-03-14T13:12:34;7.03;;;2.08;;
76059;SDS011;64759;52.220;5.170;2023-03-14T13:15:16;12.02;;;1.90;;
76059;SDS011;64759;52.220;5.170;2023-03-14T13:18:11;10.32;;;2.55;;
76059;SDS011;64759;52.220;5.170;2023-03-14T13:20:40;13.20;;;1.98;;
76059;SDS011;64759;52.220;5.170;2023-03-14T13:25:47;15.45;;;2.13;;
76059;SDS011;64759;52.220;5.170;2023-03-14T13:28:13;11.65;;;1.70;;
76059;SDS011;64759;52.220;5.170;2023-03-14T13:30:40;10.50;;;1.63;;
76059;SDS011;64759;52.220;5.170;2023-03-14T13:33:22;10.25;;;1.77;;
76059;SDS011;64759;52.220;5.170;2023-03-14T13:35:55;16.00;;;2.88;;
76059;SDS011;64759;52.220;5.170;2023-03-14T13:38:28;10.95;;;3.03;;
76059;SDS011;64759;52.220;5.170;2023-03-14T13:40:55;11.63;;;2.47;;
76059;SDS011;64759;52.220;5.170;2023-03-14T13:46:20;20.02;;;2.60;;
76059;SDS011;64759;52.220;5.170;2023-03-14T13:48:48;24.38;;;2.78;;
76059;SDS011;64759;52.220;5.170;2023-03-14T13:51:18;20.73;;;3.03;;
76059;SDS011;64759;52.220;5.170;2023-03-14T13:53:49;16.60;;;2.70;;
76059;SDS011;64759;52.220;5.170;2023-03-14T13:56:20;14.38;;;2.97;;
76059;SDS011;64759;52.220;5.170;2023-03-14T13:58:47;11.05;;;2.35;;
76059;SDS011;64759;52.220;5.170;2023-03-14T14:01:17;13.68;;;3.40;;
76059;SDS011;64759;52.220;5.170;2023-03-14T14:03:46;15.43;;;2.80;;
76059;SDS011;64759;52.220;5.170;2023-03-14T14:08:59;12.07;;;2.45;;
76059;SDS011;64759;52.220;5.170;2023-03-14T14:17:05;8.88;;;1.67;;
76059;SDS011;64759;52.220;5.170;2023-03-14T14:19:35;11.65;;;1.73;;
76059;SDS011;64759;52.220;5.170;2023-03-14T14:22:02;18.30;;;1.77;;
76059;SDS011;64759;52.220;5.170;2023-03-14T14:24:29;13.38;;;2.40;;
76059;SDS011;64759;52.220;5.170;2023-03-14T14:32:48;9.23;;;1.98;;
76059;SDS011;64759;52.220;5.170;2023-03-14T14:35:25;15.77;;;2.88;;
76059;SDS011;64759;52.220;5.170;2023-03-14T14:37:55;9.43;;;1.92;;
76059;SDS011;64759;52.220;5.170;2023-03-14T14:40:23;14.43;;;1.77;;
76059;SDS011;64759;52.220;5.170;2023-03-14T14:42:53;11.85;;;2.15;;
76059;SDS011;64759;52.220;5.170;2023-03-14T14:45:21;27.55;;;14.13;;
76059;SDS011;64759;52.220;5.170;2023-03-14T14:47:56;11.95;;;2.22;;
76059;SDS011;64759;52.220;5.170;2023-03-14T14:50:31;13.00;;;2.08;;
76059;SDS011;64759;52.220;5.170;2023-03-14T14:53:20;11.90;;;2.30;;
76059;SDS011;64759;52.220;5.170;2023-03-14T14:55:49;12.10;;;3.05;;
76059;SDS011;64759;52.220;5.170;2023-03-14T14:58:35;10.15;;;3.00;;
76059;SDS011;64759;52.220;5.170;2023-03-14T15:01:07;10.27;;;2.00;;
76059;SDS011;64759;52.220;5.170;2023-03-14T15:03:37;9.18;;;2.05;;
76059;SDS011;64759;52.220;5.170;2023-03-14T15:06:03;10.68;;;2.15;;
76059;SDS011;64759;52.220;5.170;2023-03-14T15:08:29;10.88;;;2.00;;
76059;SDS011;64759;52.220;5.170;2023-03-14T15:10:55;14.20;;;2.22;;
76059;SDS011;64759;52.220;5.170;2023-03-14T15:13:21;7.68;;;1.95;;
76059;SDS011;64759;52.220;5.170;2023-03-14T15:15:48;5.65;;;1.55;;
76059;SDS011;64759;52.220;5.170;2023-03-14T15:18:21;11.13;;;1.75;;
76059;SDS011;64759;52.220;5.170;2023-03-14T15:20:48;8.20;;;1.42;;
76059;SDS011;64759;52.220;5.170;2023-03-14T15:23:14;10.77;;;2.08;;
76059;SDS011;64759;52.220;5.170;2023-03-14T15:25:41;9.15;;;1.55;;
76059;SDS011;64759;52.220;5.170;2023-03-14T15:28:31;12.88;;;1.85;;
76059;SDS011;64759;52.220;5.170;2023-03-14T15:30:56;10.98;;;2.47;;
76059;SDS011;64759;52.220;5.170;2023-03-14T15:33:23;10.23;;;1.95;;
76059;SDS011;64759;52.220;5.170;2023-03-14T15:35:50;11.00;;;2.78;;
76059;SDS011;64759;52.220;5.170;2023-03-14T15:38:17;10.60;;;2.88;;
76059;SDS011;64759;52.220;5.170;2023-03-14T15:40:47;11.02;;;2.10;;
76059;SDS011;64759;52.220;5.170;2023-03-14T15:43:16;8.38;;;1.70;;
76059;SDS011;64759;52.220;5.170;2023-03-14T15:45:43;6.30;;;1.70;;
76059;SDS011;64759;52.220;5.170;2023-03-14T15:48:19;10.95;;;2.15;;
76059;SDS011;64759;52.220;5.170;2023-03-14T15:50:46;14.25;;;1.98;;
76059;SDS011;64759;52.220;5.170;2023-03-14T15:53:14;12.38;;;2.20;;
76059;SDS011;64759;52.220;5.170;2023-03-14T15:55:39;10.60;;;1.95;;
76059;SDS011;64759;52.220;5.170;2023-03-14T15:58:05;18.40;;;2.50;;
76059;SDS011;64759;52.220;5.170;2023-03-14T16:00:30;15.55;;;2.65;;
76059;SDS011;64759;52.220;5.170;2023-03-14T16:02:56;18.20;;;2.13;;
76059;SDS011;64759;52.220;5.170;2023-03-14T16:05:22;11.73;;;2.47;;
76059;SDS011;64759;52.220;5.170;2023-03-14T16:07:47;17.00;;;2.30;;
76059;SDS011;64759;52.220;5.170;2023-03-14T16:10:14;13.48;;;2.75;;